createdAt,value
2024-05-09T00:00:35.788Z,78.33
2024-05-09T00:03:12.204Z,78.16
2024-05-09T00:05:43.248Z,78.07
2024-05-09T00:08:13.128Z,78.62
2024-05-09T00:10:42.616Z,78.26
2024-05-09T00:13:12.403Z,78.81
2024-05-09T00:15:41.849Z,79.06
2024-05-09T00:18:14.004Z,79.00
2024-05-09T00:20:43.845Z,78.59
2024-05-09T00:23:14.189Z,78.59
2024-05-09T00:25:44.988Z,78.60
2024-05-09T00:28:14.622Z,78.70
2024-05-09T00:30:44.272Z,78.95
2024-05-09T00:33:16.591Z,78.75
2024-05-09T00:35:46.124Z,78.61
2024-05-09T00:38:15.581Z,78.87
2024-05-09T00:40:45.011Z,78.70
2024-05-09T00:43:15.208Z,78.44
2024-05-09T00:45:45.065Z,78.59
2024-05-09T00:48:20.748Z,78.76
2024-05-09T00:50:51.001Z,78.97
2024-05-09T00:53:21.430Z,79.00
2024-05-09T00:55:51.012Z,78.89
2024-05-09T00:58:22.800Z,79.27
2024-05-09T01:00:52.876Z,79.21
2024-05-09T01:03:25.048Z,79.01
2024-05-09T01:05:54.757Z,78.81
2024-05-09T01:08:24.086Z,79.41
2024-05-09T01:10:53.482Z,79.15
2024-05-09T01:13:22.896Z,79.01
2024-05-09T01:15:53.960Z,78.76
2024-05-09T01:18:26.043Z,79.03
2024-05-09T01:20:55.603Z,78.53
2024-05-09T01:23:27.582Z,78.57
2024-05-09T01:25:57.059Z,78.69
2024-05-09T01:28:26.438Z,78.19
2024-05-09T01:30:56.006Z,78.12
2024-05-09T01:33:25.536Z,78.04
2024-05-09T01:35:55.006Z,78.31
2024-05-09T01:38:27.052Z,78.53
2024-05-09T01:40:56.474Z,77.75
2024-05-09T01:43:25.858Z,78.05
2024-05-09T01:45:55.194Z,77.82
2024-05-09T01:48:24.795Z,78.14
2024-05-09T01:50:54.355Z,77.56
2024-05-09T01:53:23.758Z,77.69
2024-05-09T01:55:55.776Z,77.44
2024-05-09T01:58:25.176Z,77.61
2024-05-09T02:00:55.088Z,77.49
2024-05-09T02:03:24.660Z,76.82
2024-05-09T02:05:54.225Z,77.18
2024-05-09T02:08:24.383Z,77.20
2024-05-09T02:10:56.537Z,76.71
2024-05-09T02:13:25.919Z,76.95
2024-05-09T02:15:55.482Z,77.16
2024-05-09T02:18:25.082Z,77.47
2024-05-09T02:20:54.591Z,77.09
2024-05-09T02:23:23.954Z,77.19
2024-05-09T02:25:55.941Z,76.83
2024-05-09T02:28:25.319Z,76.79
2024-05-09T02:30:54.691Z,76.64
2024-05-09T02:33:24.238Z,76.67
2024-05-09T02:35:53.678Z,77.22
2024-05-09T02:38:20.519Z,77.40
2024-05-09T02:40:49.930Z,77.31
2024-05-09T02:43:19.358Z,77.66
2024-05-09T02:45:48.690Z,77.90
2024-05-09T02:48:15.635Z,77.64
2024-05-09T02:50:45.868Z,77.44
2024-05-09T02:53:13.530Z,77.73
2024-05-09T02:55:43.704Z,77.61
2024-05-09T02:58:10.817Z,77.99
2024-05-09T03:00:43.272Z,78.23
2024-05-09T03:03:15.134Z,78.17
2024-05-09T03:05:45.622Z,78.44
2024-05-09T03:08:12.855Z,78.91
2024-05-09T03:10:42.676Z,78.23
2024-05-09T03:13:11.708Z,78.52
2024-05-09T03:15:44.197Z,78.67
2024-05-09T03:18:11.810Z,78.26
2024-05-09T03:20:43.830Z,78.03
2024-05-09T03:23:10.962Z,78.28
2024-05-09T03:25:40.601Z,77.97
2024-05-09T03:28:07.457Z,78.30
2024-05-09T03:30:41.810Z,78.24
2024-05-09T03:33:15.508Z,78.56
2024-05-09T03:35:45.627Z,78.22
2024-05-09T03:38:15.278Z,78.24
2024-05-09T03:40:48.601Z,77.97
2024-05-09T03:43:18.999Z,77.93
2024-05-09T03:45:47.645Z,78.28
2024-05-09T03:48:19.854Z,77.81
2024-05-09T03:50:47.161Z,77.84
2024-05-09T03:53:17.233Z,78.10
2024-05-09T03:55:47.221Z,78.23
2024-05-09T03:58:16.656Z,77.89
2024-05-09T04:00:43.561Z,78.50
2024-05-09T04:03:13.608Z,78.39
2024-05-09T04:05:44.449Z,78.78
2024-05-09T04:08:15.795Z,78.41
2024-05-09T04:10:43.091Z,78.41
2024-05-09T04:13:12.801Z,78.67
2024-05-09T04:15:39.794Z,78.89
2024-05-09T04:18:09.290Z,78.64
2024-05-09T04:20:39.587Z,78.62
2024-05-09T04:23:16.640Z,78.82
2024-05-09T04:25:45.228Z,78.54
2024-05-09T04:28:15.209Z,78.56
2024-05-09T04:30:42.756Z,78.95
2024-05-09T04:33:14.369Z,78.75
2024-05-09T04:35:42.138Z,79.12
2024-05-09T04:38:11.904Z,78.70
2024-05-09T04:40:41.420Z,78.39
2024-05-09T04:43:17.168Z,78.31
2024-05-09T04:45:44.187Z,78.16
2024-05-09T04:48:13.758Z,78.18
2024-05-09T04:50:40.995Z,78.73
2024-05-09T04:53:11.699Z,78.37
2024-05-09T04:55:41.394Z,78.78
2024-05-09T04:58:11.481Z,78.50
2024-05-09T05:00:39.744Z,78.23
2024-05-09T05:03:14.527Z,78.32
2024-05-09T05:05:45.085Z,78.09
2024-05-09T05:08:16.124Z,77.98
2024-05-09T05:10:47.731Z,77.78
2024-05-09T05:13:23.841Z,77.97
2024-05-09T05:15:53.317Z,77.91
2024-05-09T05:18:23.086Z,77.51
2024-05-09T05:20:50.213Z,77.92
2024-05-09T05:23:21.338Z,78.26
2024-05-09T05:25:52.797Z,77.33
2024-05-09T05:28:23.208Z,77.97
2024-05-09T05:30:50.407Z,78.29
2024-05-09T05:33:22.059Z,77.80
2024-05-09T05:35:49.203Z,77.31
2024-05-09T05:38:19.487Z,77.51
2024-05-09T05:40:47.417Z,76.87
2024-05-09T05:43:21.500Z,76.82
2024-05-09T05:45:48.289Z,77.18
2024-05-09T05:48:19.895Z,77.45
2024-05-09T05:50:46.944Z,76.95
2024-05-09T05:53:16.678Z,76.68
2024-05-09T05:55:43.486Z,76.61
2024-05-09T05:58:14.355Z,75.67
2024-05-09T06:00:44.122Z,76.07
2024-05-09T06:03:14.569Z,75.49
2024-05-09T06:05:43.677Z,75.99
2024-05-09T06:08:13.999Z,75.54
2024-05-09T06:10:41.908Z,74.70
2024-05-09T06:13:13.519Z,75.06
2024-05-09T06:15:44.014Z,74.87
2024-05-09T06:18:13.872Z,74.81
2024-05-09T06:20:42.281Z,74.28
2024-05-09T06:23:13.287Z,74.62
2024-05-09T06:25:40.543Z,74.53
2024-05-09T06:28:09.998Z,74.22
2024-05-09T06:30:40.323Z,74.49
2024-05-09T06:33:16.089Z,74.66
2024-05-09T06:35:43.885Z,74.28
2024-05-09T06:38:13.682Z,74.44
2024-05-09T06:40:42.899Z,73.98
2024-05-09T06:43:14.726Z,73.96
2024-05-09T06:45:42.630Z,72.98
2024-05-09T06:48:14.898Z,72.41
2024-05-09T06:50:41.918Z,71.33
2024-05-09T06:53:11.368Z,71.92
2024-05-09T06:55:38.353Z,71.91
2024-05-09T06:58:09.018Z,72.19
2024-05-09T07:00:39.605Z,71.62
2024-05-09T07:03:12.108Z,71.70
2024-05-09T07:05:43.176Z,71.71
2024-05-09T07:08:13.034Z,71.56
2024-05-09T07:10:39.847Z,71.07
2024-05-09T07:13:11.535Z,70.51
2024-05-09T07:15:38.820Z,70.41
2024-05-09T07:18:12.780Z,69.72
2024-05-09T07:20:42.960Z,69.50
2024-05-09T07:23:12.915Z,69.94
2024-05-09T07:25:40.631Z,69.49
2024-05-09T07:28:13.059Z,69.30
2024-05-09T07:30:39.860Z,69.56
2024-05-09T07:33:09.425Z,69.99
2024-05-09T07:35:36.520Z,69.77
2024-05-09T07:38:08.675Z,69.12
2024-05-09T07:40:37.095Z,68.58
2024-05-09T07:43:07.305Z,67.84
2024-05-09T07:53:37.300Z,67.16
2024-05-09T07:56:00.517Z,66.47
2024-05-09T07:58:30.030Z,65.51
2024-05-09T08:00:56.994Z,65.97
2024-05-09T08:03:26.606Z,65.79
2024-05-09T08:05:54.385Z,65.75
2024-05-09T08:08:26.426Z,65.42
2024-05-09T08:10:53.391Z,65.15
2024-05-09T08:13:23.202Z,64.62
2024-05-09T08:15:50.274Z,64.84
2024-05-09T08:18:20.343Z,64.18
2024-05-09T08:20:48.829Z,64.11
2024-05-09T08:23:18.354Z,63.77
2024-05-09T08:25:48.105Z,63.06
2024-05-09T08:28:17.892Z,62.96
2024-05-09T08:30:45.175Z,62.43
2024-05-09T08:33:15.125Z,62.52
2024-05-09T08:35:42.027Z,61.92
2024-05-09T08:38:11.899Z,60.43
2024-05-09T08:40:39.156Z,60.72
2024-05-09T08:43:13.038Z,59.57
2024-05-09T08:45:43.122Z,60.17
2024-05-09T08:48:16.097Z,58.63
2024-05-09T08:50:45.020Z,58.50
2024-05-09T08:53:15.492Z,56.98
2024-05-09T08:55:44.026Z,55.40
2024-05-09T08:58:19.347Z,54.73
2024-05-09T09:00:47.103Z,53.63
2024-05-09T09:03:18.797Z,55.20
2024-05-09T09:05:48.942Z,52.30
2024-05-09T09:08:18.531Z,52.10
2024-05-09T09:10:46.595Z,52.04
2024-05-09T09:13:18.674Z,52.20
2024-05-09T09:15:49.021Z,50.77
2024-05-09T09:18:19.558Z,49.41
2024-05-09T09:20:46.767Z,50.04
2024-05-09T09:23:16.879Z,48.68
2024-05-09T09:25:43.794Z,48.95
2024-05-09T09:28:13.582Z,47.40
2024-05-09T09:30:43.425Z,47.33
2024-05-09T09:33:13.285Z,46.09
2024-05-09T09:35:42.191Z,46.58
2024-05-09T09:38:11.901Z,46.10
2024-05-09T09:40:46.728Z,46.67
2024-05-09T09:43:22.400Z,44.84
2024-05-09T09:45:55.144Z,44.87
2024-05-09T09:48:24.683Z,45.96
2024-05-09T09:50:52.180Z,45.45
2024-05-09T09:53:22.116Z,44.60
2024-05-09T09:55:48.963Z,42.49
2024-05-09T09:58:19.845Z,44.92
2024-05-09T10:00:46.990Z,43.55
2024-05-09T10:03:19.308Z,44.07
2024-05-09T10:05:47.486Z,42.93
2024-05-09T10:08:17.794Z,42.95
2024-05-09T10:10:46.740Z,43.16
2024-05-09T10:13:16.533Z,43.67
2024-05-09T10:15:45.504Z,44.14
2024-05-09T10:18:15.607Z,43.62
2024-05-09T10:20:46.297Z,42.90
2024-05-09T10:23:26.830Z,42.60
2024-05-09T10:25:57.984Z,43.45
2024-05-09T10:28:30.710Z,43.16
2024-05-09T10:31:03.170Z,41.73
2024-05-09T10:33:39.799Z,42.52
2024-05-09T10:36:16.719Z,41.75
2024-05-09T10:38:43.834Z,41.52
2024-05-09T10:41:13.708Z,43.42
2024-05-09T10:43:41.334Z,40.91
2024-05-09T10:46:11.741Z,41.61
2024-05-09T10:48:39.670Z,39.59
2024-05-09T10:51:14.045Z,38.76
2024-05-09T10:53:47.918Z,40.00
2024-05-09T10:56:17.730Z,42.39
2024-05-09T10:58:44.994Z,42.46
2024-05-09T11:01:15.922Z,42.10
2024-05-09T11:03:47.016Z,40.50
2024-05-09T11:06:17.185Z,40.39
2024-05-09T11:08:47.089Z,41.59
2024-05-09T11:11:16.693Z,41.46
2024-05-09T11:13:43.596Z,40.78
2024-05-09T11:16:21.298Z,41.47
2024-05-09T11:18:58.841Z,41.98
2024-05-09T11:21:26.095Z,42.46
2024-05-09T11:23:58.386Z,41.21
2024-05-09T11:26:28.090Z,40.72
2024-05-09T11:28:57.504Z,40.53
2024-05-09T11:31:24.574Z,39.87
2024-05-09T11:33:57.085Z,40.76
2024-05-09T11:36:24.197Z,40.39
2024-05-09T11:38:53.565Z,40.88
2024-05-09T11:41:23.719Z,42.09
2024-05-09T11:43:53.093Z,42.22
2024-05-09T11:46:20.007Z,41.86
2024-05-09T11:48:49.670Z,42.17
2024-05-09T11:51:16.499Z,43.67
2024-05-09T11:53:45.833Z,43.40
2024-05-09T11:56:15.311Z,44.05
2024-05-09T11:58:47.342Z,41.59
2024-05-09T12:01:14.068Z,40.73
2024-05-09T12:03:43.511Z,42.60
2024-05-09T12:06:10.436Z,43.11
2024-05-09T12:08:39.828Z,43.83
2024-05-09T12:11:06.784Z,42.47
2024-05-09T12:13:36.198Z,42.55
2024-05-09T12:16:06.285Z,42.27
2024-05-09T12:18:36.410Z,43.30
2024-05-09T12:21:03.449Z,44.04
2024-05-09T12:23:32.808Z,42.70
2024-05-09T12:25:59.674Z,41.72
2024-05-09T12:28:29.818Z,40.78
2024-05-09T12:30:56.654Z,39.87
2024-05-09T12:33:29.586Z,42.33
2024-05-09T12:35:56.479Z,40.33
2024-05-09T12:38:25.907Z,41.85
2024-05-09T12:40:52.998Z,40.36
2024-05-09T12:43:22.652Z,40.80
2024-05-09T12:45:49.778Z,41.61
2024-05-09T12:48:19.495Z,40.77
2024-05-09T12:50:49.133Z,41.09
2024-05-09T12:53:18.619Z,40.73
2024-05-09T12:55:53.446Z,38.99
2024-05-09T12:58:26.558Z,39.78
2024-05-09T13:00:53.618Z,39.95
2024-05-09T13:03:23.479Z,40.43
2024-05-09T13:05:53.086Z,39.82
2024-05-09T13:08:22.614Z,41.57
2024-05-09T13:10:50.362Z,41.96
2024-05-09T13:13:20.149Z,42.39
2024-05-09T13:15:47.137Z,44.39
2024-05-09T13:18:16.702Z,45.67
2024-05-09T13:20:44.343Z,43.76
2024-05-09T13:23:16.265Z,41.72
2024-05-09T13:25:43.101Z,41.17
2024-05-09T13:28:12.569Z,42.41
2024-05-09T13:30:41.790Z,39.31
2024-05-09T13:33:13.024Z,41.94
2024-05-09T13:35:45.013Z,40.21
2024-05-09T13:38:21.848Z,40.79
2024-05-09T13:40:50.022Z,42.00
2024-05-09T13:43:21.841Z,40.88
2024-05-09T13:45:49.137Z,40.87
2024-05-09T13:48:19.744Z,40.38
2024-05-09T13:50:46.937Z,39.97
2024-05-09T13:53:16.545Z,40.66
2024-05-09T13:55:45.950Z,39.36
2024-05-09T13:58:15.504Z,40.30
2024-05-09T14:00:47.267Z,38.40
2024-05-09T14:03:20.410Z,38.32
2024-05-09T14:05:49.328Z,39.00
2024-05-09T14:08:19.848Z,38.86
2024-05-09T14:10:50.017Z,40.54
2024-05-09T14:13:19.928Z,40.59
2024-05-09T14:15:47.086Z,39.94
2024-05-09T14:18:16.770Z,40.22
2024-05-09T14:20:43.710Z,40.54
2024-05-09T14:23:13.229Z,40.85
2024-05-09T14:25:42.498Z,42.76
2024-05-09T14:28:15.831Z,39.67
2024-05-09T14:30:43.100Z,42.89
2024-05-09T14:33:12.944Z,42.03
2024-05-09T14:35:39.928Z,42.50
2024-05-09T14:38:09.873Z,41.14
2024-05-09T14:40:42.160Z,40.28
2024-05-09T14:43:17.255Z,41.36
2024-05-09T14:45:44.774Z,41.02
2024-05-09T14:48:16.075Z,41.92
2024-05-09T14:50:43.001Z,42.26
2024-05-09T14:53:13.885Z,41.37
2024-05-09T14:55:43.009Z,40.92
2024-05-09T14:58:15.904Z,40.79
2024-05-09T15:00:49.708Z,42.38
2024-05-09T15:03:22.011Z,39.77
2024-05-09T15:05:49.832Z,42.12
2024-05-09T15:08:20.035Z,42.58
2024-05-09T15:10:50.551Z,40.06
2024-05-09T15:13:20.874Z,41.04
2024-05-09T15:15:50.695Z,39.54
2024-05-09T15:18:17.871Z,41.00
2024-05-09T15:20:48.145Z,41.39
2024-05-09T15:23:15.224Z,43.95
2024-05-09T15:25:44.764Z,41.69
2024-05-09T15:28:11.728Z,42.14
2024-05-09T15:30:46.224Z,40.35
2024-05-09T15:33:13.936Z,41.58
2024-05-09T15:35:44.835Z,41.90
2024-05-09T15:38:11.759Z,41.65
2024-05-09T15:40:41.397Z,41.54
2024-05-09T15:43:10.186Z,42.04
2024-05-09T15:45:43.560Z,41.37
2024-05-09T15:48:11.223Z,42.53
2024-05-09T15:50:42.467Z,42.10
2024-05-09T15:53:11.011Z,41.91
2024-05-09T15:55:41.288Z,41.67
2024-05-09T15:58:08.392Z,41.99
2024-05-09T16:00:41.433Z,41.27
2024-05-09T16:03:14.084Z,40.24
2024-05-09T16:05:46.922Z,40.44
2024-05-09T16:08:14.868Z,37.78
2024-05-09T16:10:46.003Z,38.70
2024-05-09T16:13:13.924Z,39.99
2024-05-09T16:15:43.931Z,38.26
2024-05-09T16:18:13.555Z,38.33
2024-05-09T16:20:44.859Z,41.21
2024-05-09T16:23:13.256Z,41.06
2024-05-09T16:25:45.289Z,40.17
2024-05-09T16:28:12.241Z,39.78
2024-05-09T16:30:41.969Z,40.17
2024-05-09T16:33:09.626Z,39.30
2024-05-09T16:35:41.822Z,39.61
2024-05-09T16:38:08.920Z,40.23
2024-05-09T16:40:40.964Z,40.33
2024-05-09T16:43:08.820Z,41.64
2024-05-09T16:45:38.574Z,39.32
2024-05-09T16:48:06.919Z,39.49
2024-05-09T16:50:36.908Z,39.76
2024-05-09T16:53:07.078Z,40.94
2024-05-09T16:55:37.109Z,42.27
2024-05-09T16:58:04.891Z,42.31
2024-05-09T17:00:40.734Z,41.22
2024-05-09T17:03:11.419Z,40.60
2024-05-09T17:05:42.071Z,39.85
2024-05-09T17:08:12.351Z,40.29
2024-05-09T17:10:41.842Z,40.81
2024-05-09T17:13:09.900Z,41.24
2024-05-09T17:15:39.355Z,40.89
2024-05-09T17:18:09.790Z,40.01
2024-05-09T17:20:37.699Z,40.40
2024-05-09T17:23:12.875Z,41.20
2024-05-09T17:25:43.315Z,42.30
2024-05-09T17:28:12.993Z,42.21
2024-05-09T17:30:41.812Z,41.57
2024-05-09T17:33:13.353Z,41.97
2024-05-09T17:35:45.616Z,41.54
2024-05-09T17:38:12.487Z,42.37
2024-05-09T17:40:41.911Z,42.60
2024-05-09T17:43:11.577Z,42.96
2024-05-09T17:45:41.886Z,43.41
2024-05-09T17:48:10.263Z,43.69
2024-05-09T17:50:41.689Z,44.21
2024-05-09T17:53:09.287Z,44.41
2024-05-09T17:55:38.810Z,44.99
2024-05-09T17:58:05.959Z,44.66
2024-05-09T18:00:41.145Z,44.65
2024-05-09T18:03:11.384Z,44.88
2024-05-09T18:05:42.717Z,45.21
2024-05-09T18:08:10.541Z,44.77
2024-05-09T18:10:40.675Z,44.77
2024-05-09T18:13:08.625Z,45.37
2024-05-09T18:15:41.269Z,45.29
2024-05-09T18:18:09.202Z,45.31
2024-05-09T18:20:43.830Z,46.19
2024-05-09T18:23:13.495Z,45.71
2024-05-09T18:25:43.505Z,45.94
2024-05-09T18:28:10.457Z,47.61
2024-05-09T18:30:43.105Z,47.11
2024-05-09T18:33:10.875Z,47.42
2024-05-09T18:35:40.731Z,48.50
2024-05-09T18:38:08.855Z,48.19
2024-05-09T18:40:39.761Z,48.23
2024-05-09T18:43:09.076Z,48.88
2024-05-09T18:45:39.284Z,48.86
2024-05-09T18:48:09.843Z,48.71
2024-05-09T18:50:41.354Z,49.53
2024-05-09T18:53:09.868Z,49.84
2024-05-09T18:55:39.487Z,51.02
2024-05-09T18:58:06.412Z,51.15
2024-05-09T19:00:38.957Z,52.02
2024-05-09T19:03:13.054Z,51.71
2024-05-09T19:05:45.251Z,52.77
2024-05-09T19:08:13.106Z,53.57
2024-05-09T19:10:42.612Z,53.68
2024-05-09T19:13:12.544Z,54.23
2024-05-09T19:15:43.982Z,54.00
2024-05-09T19:18:14.743Z,54.33
2024-05-09T19:20:44.927Z,54.58
2024-05-09T19:23:12.117Z,54.79
2024-05-09T19:25:41.581Z,55.07
2024-05-09T19:28:08.611Z,55.05
2024-05-09T19:30:41.426Z,54.84
2024-05-09T19:33:10.783Z,55.13
2024-05-09T19:35:44.370Z,55.49
2024-05-09T19:38:11.923Z,55.90
2024-05-09T19:40:41.443Z,57.09
2024-05-09T19:43:08.518Z,56.43
2024-05-09T19:45:38.082Z,57.36
2024-05-09T19:48:06.568Z,57.24
2024-05-09T19:50:42.053Z,57.88
2024-05-09T19:53:14.258Z,57.94
2024-05-09T19:55:44.048Z,57.47
2024-05-09T19:58:11.883Z,58.06
2024-05-09T20:00:43.821Z,58.11
2024-05-09T20:03:12.886Z,58.53
2024-05-09T20:05:42.952Z,59.52
2024-05-09T20:08:09.875Z,59.20
2024-05-09T20:10:41.861Z,59.08
2024-05-09T20:13:09.045Z,59.55
2024-05-09T20:15:39.903Z,60.23
2024-05-09T20:18:07.548Z,59.69
2024-05-09T20:20:41.454Z,60.42
2024-05-09T20:23:10.797Z,60.77
2024-05-09T20:25:43.068Z,61.01
2024-05-09T20:28:10.519Z,61.63
2024-05-09T20:30:40.239Z,61.70
2024-05-09T20:33:08.776Z,61.36
2024-05-09T20:35:39.057Z,62.53
2024-05-09T20:38:06.053Z,62.45
2024-05-09T20:40:38.492Z,63.35
2024-05-09T20:43:09.667Z,63.45
2024-05-09T20:45:40.137Z,63.63
2024-05-09T20:48:08.934Z,63.54
2024-05-09T20:50:41.443Z,63.74
2024-05-09T20:53:10.676Z,63.29
2024-05-09T20:55:40.255Z,62.79
2024-05-09T20:58:10.088Z,62.96
2024-05-09T21:00:43.239Z,63.05
2024-05-09T21:03:13.153Z,64.11
2024-05-09T21:05:43.457Z,63.87
2024-05-09T21:08:10.381Z,63.81
2024-05-09T21:10:39.875Z,64.43
2024-05-09T21:13:09.539Z,63.62
2024-05-09T21:15:38.986Z,64.48
2024-05-09T21:18:06.070Z,64.41
2024-05-09T21:20:37.388Z,64.77
2024-05-09T21:23:04.610Z,65.14
2024-05-09T21:25:34.224Z,65.14
2024-05-09T21:28:01.296Z,65.32
2024-05-09T21:30:41.223Z,65.02
2024-05-09T21:33:11.548Z,65.53
2024-05-09T21:35:42.866Z,65.82
2024-05-09T21:38:10.024Z,65.38
2024-05-09T21:40:39.798Z,65.71
2024-05-09T21:43:07.725Z,65.88
2024-05-09T21:45:40.064Z,66.48
2024-05-09T21:48:08.099Z,65.42
2024-05-09T21:50:41.031Z,66.02
2024-05-09T21:53:09.543Z,66.69
2024-05-09T21:55:38.997Z,65.99
2024-05-09T21:58:05.910Z,66.40
2024-05-09T22:00:38.202Z,67.13
2024-05-09T22:03:09.930Z,67.18
2024-05-09T22:05:43.626Z,67.10
2024-05-09T22:08:10.901Z,66.84
2024-05-09T22:10:40.473Z,67.31
2024-05-09T22:13:08.001Z,67.34
2024-05-09T22:15:39.831Z,67.98
2024-05-09T22:18:10.864Z,68.04
2024-05-09T22:20:45.030Z,67.58
2024-05-09T22:23:13.100Z,68.35
2024-05-09T22:25:42.597Z,68.64
2024-05-09T22:28:09.803Z,67.30
2024-05-09T22:30:40.259Z,67.37
2024-05-09T22:33:11.667Z,68.31
2024-05-09T22:35:41.836Z,68.63
2024-05-09T22:38:09.014Z,68.49
2024-05-09T22:40:46.688Z,68.99
2024-05-09T22:43:17.903Z,68.64
2024-05-09T22:45:47.510Z,68.89
2024-05-09T22:48:17.463Z,69.34
2024-05-09T22:50:47.498Z,69.05
2024-05-09T22:53:14.361Z,69.53
2024-05-09T22:55:43.864Z,69.51
2024-05-09T22:58:10.972Z,69.30
2024-05-09T23:00:40.573Z,69.28
2024-05-09T23:03:07.493Z,69.55
2024-05-09T23:05:39.563Z,69.20
2024-05-09T23:08:07.189Z,69.10
2024-05-09T23:10:38.075Z,69.01
2024-05-09T23:13:05.983Z,68.91
2024-05-09T23:15:35.665Z,68.52
2024-05-09T23:18:02.659Z,68.68
2024-05-09T23:20:37.460Z,69.07
2024-05-09T23:23:10.617Z,69.07
2024-05-09T23:25:41.759Z,69.11
2024-05-09T23:28:11.875Z,68.95
2024-05-09T23:30:40.686Z,68.98
2024-05-09T23:33:12.764Z,68.66
2024-05-09T23:35:41.154Z,68.31
2024-05-09T23:38:13.432Z,68.59
2024-05-09T23:40:41.891Z,68.71
2024-05-09T23:43:13.078Z,67.83
2024-05-09T23:45:40.415Z,69.04
2024-05-09T23:48:10.856Z,68.90
2024-05-09T23:50:39.541Z,68.73
2024-05-09T23:53:14.236Z,67.97
2024-05-09T23:55:41.187Z,68.23
2024-05-09T23:58:11.288Z,69.09
